sensor_id;sensor_type;location;lat;lon;timestamp;P1;durP1;ratioP1;P2;durP2;ratioP2
60853;SDS011;48554;50.766;2.900;2022-09-14T00:01:57;3.63;;;1.70;;
60853;SDS011;48554;50.766;2.900;2022-09-14T00:04:18;4.60;;;1.53;;
60853;SDS011;48554;50.766;2.900;2022-09-14T00:06:39;5.03;;;1.50;;
60853;SDS011;48554;50.766;2.900;2022-09-14T00:09:00;3.83;;;1.55;;
60853;SDS011;48554;50.766;2.900;2022-09-14T00:11:21;4.47;;;1.50;;
60853;SDS011;48554;50.766;2.900;2022-09-14T00:13:43;3.38;;;1.65;;
60853;SDS011;48554;50.766;2.900;2022-09-14T00:18:25;5.22;;;1.60;;
60853;SDS011;48554;50.766;2.900;2022-09-14T00:20:45;7.03;;;1.63;;
60853;SDS011;48554;50.766;2.900;2022-09-14T00:23:06;4.70;;;1.53;;
60853;SDS011;48554;50.766;2.900;2022-09-14T00:25:26;3.63;;;1.73;;
60853;SDS011;48554;50.766;2.900;2022-09-14T00:27:46;4.00;;;1.50;;
60853;SDS011;48554;50.766;2.900;2022-09-14T00:30:07;4.17;;;1.60;;
60853;SDS011;48554;50.766;2.900;2022-09-14T00:32:27;5.87;;;2.37;;
60853;SDS011;48554;50.766;2.900;2022-09-14T00:34:47;5.10;;;1.93;;
60853;SDS011;48554;50.766;2.900;2022-09-14T00:37:08;5.00;;;2.00;;
60853;SDS011;48554;50.766;2.900;2022-09-14T00:39:29;5.90;;;1.60;;
60853;SDS011;48554;50.766;2.900;2022-09-14T00:41:50;4.73;;;1.80;;
60853;SDS011;48554;50.766;2.900;2022-09-14T00:46:34;3.53;;;1.50;;
60853;SDS011;48554;50.766;2.900;2022-09-14T00:48:58;6.28;;;1.92;;
60853;SDS011;48554;50.766;2.900;2022-09-14T00:51:21;3.67;;;1.50;;
60853;SDS011;48554;50.766;2.900;2022-09-14T00:53:41;5.07;;;1.73;;
60853;SDS011;48554;50.766;2.900;2022-09-14T00:56:02;3.70;;;1.80;;
60853;SDS011;48554;50.766;2.900;2022-09-14T00:58:22;4.63;;;1.80;;
60853;SDS011;48554;50.766;2.900;2022-09-14T01:00:42;7.30;;;2.00;;
60853;SDS011;48554;50.766;2.900;2022-09-14T01:03:03;7.23;;;2.20;;
60853;SDS011;48554;50.766;2.900;2022-09-14T01:05:26;5.23;;;2.30;;
60853;SDS011;48554;50.766;2.900;2022-09-14T01:11:08;4.00;;;1.90;;
60853;SDS011;48554;50.766;2.900;2022-09-14T01:14:10;5.88;;;1.90;;
60853;SDS011;48554;50.766;2.900;2022-09-14T01:16:55;6.13;;;2.80;;
60853;SDS011;48554;50.766;2.900;2022-09-14T01:22:09;6.38;;;1.92;;
60853;SDS011;48554;50.766;2.900;2022-09-14T01:25:04;4.43;;;2.10;;
60853;SDS011;48554;50.766;2.900;2022-09-14T01:27:40;4.68;;;1.83;;
60853;SDS011;48554;50.766;2.900;2022-09-14T01:30:18;5.32;;;2.00;;
60853;SDS011;48554;50.766;2.900;2022-09-14T01:32:49;5.28;;;2.05;;
60853;SDS011;48554;50.766;2.900;2022-09-14T01:35:25;6.10;;;2.28;;
60853;SDS011;48554;50.766;2.900;2022-09-14T01:38:02;4.18;;;2.33;;
60853;SDS011;48554;50.766;2.900;2022-09-14T01:40:29;5.25;;;2.00;;
60853;SDS011;48554;50.766;2.900;2022-09-14T01:45:48;4.30;;;1.83;;
60853;SDS011;48554;50.766;2.900;2022-09-14T01:48:11;4.15;;;1.95;;
60853;SDS011;48554;50.766;2.900;2022-09-14T01:50:42;5.28;;;2.53;;
60853;SDS011;48554;50.766;2.900;2022-09-14T01:58:25;3.85;;;1.83;;
60853;SDS011;48554;50.766;2.900;2022-09-14T02:00:53;6.78;;;1.85;;
60853;SDS011;48554;50.766;2.900;2022-09-14T02:03:18;3.92;;;1.83;;
60853;SDS011;48554;50.766;2.900;2022-09-14T02:05:48;4.07;;;1.88;;
60853;SDS011;48554;50.766;2.900;2022-09-14T02:08:09;3.00;;;1.90;;
60853;SDS011;48554;50.766;2.900;2022-09-14T02:10:30;5.70;;;2.27;;
60853;SDS011;48554;50.766;2.900;2022-09-14T02:12:52;4.05;;;1.75;;
60853;SDS011;48554;50.766;2.900;2022-09-14T02:15:13;4.72;;;2.20;;
60853;SDS011;48554;50.766;2.900;2022-09-14T02:19:55;6.13;;;2.17;;
60853;SDS011;48554;50.766;2.900;2022-09-14T02:22:19;5.80;;;2.03;;
60853;SDS011;48554;50.766;2.900;2022-09-14T02:24:39;5.67;;;2.13;;
60853;SDS011;48554;50.766;2.900;2022-09-14T02:27:00;6.20;;;1.90;;
60853;SDS011;48554;50.766;2.900;2022-09-14T02:34:33;5.53;;;2.25;;
60853;SDS011;48554;50.766;2.900;2022-09-14T02:37:18;5.95;;;2.15;;
60853;SDS011;48554;50.766;2.900;2022-09-14T02:44:42;4.25;;;1.88;;
60853;SDS011;48554;50.766;2.900;2022-09-14T02:47:16;3.25;;;1.65;;
60853;SDS011;48554;50.766;2.900;2022-09-14T02:52:32;4.75;;;1.95;;
60853;SDS011;48554;50.766;2.900;2022-09-14T02:55:16;3.92;;;1.73;;
60853;SDS011;48554;50.766;2.900;2022-09-14T02:57:57;3.70;;;1.67;;
60853;SDS011;48554;50.766;2.900;2022-09-14T03:00:19;6.63;;;1.63;;
60853;SDS011;48554;50.766;2.900;2022-09-14T03:02:39;8.70;;;2.00;;
60853;SDS011;48554;50.766;2.900;2022-09-14T03:04:59;7.80;;;1.90;;
60853;SDS011;48554;50.766;2.900;2022-09-14T03:07:19;3.17;;;1.80;;
60853;SDS011;48554;50.766;2.900;2022-09-14T03:09:40;4.23;;;2.07;;
60853;SDS011;48554;50.766;2.900;2022-09-14T03:12:00;7.23;;;2.07;;
60853;SDS011;48554;50.766;2.900;2022-09-14T03:14:20;4.00;;;1.77;;
60853;SDS011;48554;50.766;2.900;2022-09-14T03:16:41;5.07;;;1.90;;
60853;SDS011;48554;50.766;2.900;2022-09-14T03:19:01;6.07;;;2.10;;
60853;SDS011;48554;50.766;2.900;2022-09-14T03:21:21;7.00;;;1.80;;
60853;SDS011;48554;50.766;2.900;2022-09-14T03:23:43;6.70;;;1.87;;
60853;SDS011;48554;50.766;2.900;2022-09-14T03:26:14;2.95;;;1.40;;
60853;SDS011;48554;50.766;2.900;2022-09-14T03:28:36;6.85;;;2.17;;
60853;SDS011;48554;50.766;2.900;2022-09-14T03:30:59;3.60;;;1.80;;
60853;SDS011;48554;50.766;2.900;2022-09-14T03:33:20;4.53;;;1.80;;
60853;SDS011;48554;50.766;2.900;2022-09-14T03:35:41;5.73;;;1.50;;
60853;SDS011;48554;50.766;2.900;2022-09-14T03:38:01;6.27;;;1.90;;
60853;SDS011;48554;50.766;2.900;2022-09-14T03:40:21;6.17;;;1.73;;
60853;SDS011;48554;50.766;2.900;2022-09-14T03:42:42;5.33;;;1.90;;
60853;SDS011;48554;50.766;2.900;2022-09-14T03:45:07;4.78;;;2.05;;
60853;SDS011;48554;50.766;2.900;2022-09-14T03:47:28;3.23;;;1.90;;
60853;SDS011;48554;50.766;2.900;2022-09-14T03:49:48;5.27;;;2.03;;
60853;SDS011;48554;50.766;2.900;2022-09-14T03:52:09;7.00;;;1.97;;
60853;SDS011;48554;50.766;2.900;2022-09-14T03:54:29;6.23;;;2.40;;
60853;SDS011;48554;50.766;2.900;2022-09-14T03:56:50;4.57;;;1.83;;
60853;SDS011;48554;50.766;2.900;2022-09-14T03:59:11;7.25;;;2.05;;
60853;SDS011;48554;50.766;2.900;2022-09-14T04:01:31;4.63;;;1.80;;
60853;SDS011;48554;50.766;2.900;2022-09-14T04:03:51;4.97;;;1.93;;
60853;SDS011;48554;50.766;2.900;2022-09-14T04:06:12;4.83;;;2.03;;
60853;SDS011;48554;50.766;2.900;2022-09-14T04:08:33;7.60;;;2.08;;
60853;SDS011;48554;50.766;2.900;2022-09-14T04:10:55;4.60;;;2.00;;
60853;SDS011;48554;50.766;2.900;2022-09-14T04:13:15;9.00;;;2.10;;
60853;SDS011;48554;50.766;2.900;2022-09-14T04:15:35;6.47;;;2.27;;
60853;SDS011;48554;50.766;2.900;2022-09-14T04:17:55;5.07;;;2.10;;
60853;SDS011;48554;50.766;2.900;2022-09-14T04:20:16;4.00;;;1.80;;
60853;SDS011;48554;50.766;2.900;2022-09-14T04:22:36;4.23;;;2.03;;
60853;SDS011;48554;50.766;2.900;2022-09-14T04:24:57;5.70;;;2.30;;
60853;SDS011;48554;50.766;2.900;2022-09-14T04:27:17;5.27;;;2.07;;
60853;SDS011;48554;50.766;2.900;2022-09-14T04:29:37;6.50;;;2.47;;
60853;SDS011;48554;50.766;2.900;2022-09-14T04:31:57;5.87;;;2.50;;
60853;SDS011;48554;50.766;2.900;2022-09-14T04:34:18;5.37;;;2.20;;
60853;SDS011;48554;50.766;2.900;2022-09-14T04:36:38;5.43;;;1.93;;
60853;SDS011;48554;50.766;2.900;2022-09-14T04:39:00;4.87;;;2.10;;
60853;SDS011;48554;50.766;2.900;2022-09-14T04:41:22;4.00;;;2.38;;
60853;SDS011;48554;50.766;2.900;2022-09-14T04:43:43;5.87;;;1.90;;
60853;SDS011;48554;50.766;2.900;2022-09-14T04:46:06;5.63;;;2.45;;
60853;SDS011;48554;50.766;2.900;2022-09-14T04:48:29;6.00;;;2.00;;
60853;SDS011;48554;50.766;2.900;2022-09-14T04:50:53;4.20;;;2.25;;
60853;SDS011;48554;50.766;2.900;2022-09-14T04:53:19;5.43;;;2.38;;
60853;SDS011;48554;50.766;2.900;2022-09-14T04:55:39;4.77;;;2.37;;
60853;SDS011;48554;50.766;2.900;2022-09-14T04:57:59;5.53;;;2.70;;
60853;SDS011;48554;50.766;2.900;2022-09-14T05:00:20;4.73;;;2.80;;
60853;SDS011;48554;50.766;2.900;2022-09-14T05:02:40;6.30;;;2.93;;
60853;SDS011;48554;50.766;2.900;2022-09-14T05:05:00;7.57;;;3.27;;
60853;SDS011;48554;50.766;2.900;2022-09-14T05:07:20;6.43;;;2.63;;
60853;SDS011;48554;50.766;2.900;2022-09-14T05:09:41;6.30;;;3.13;;
60853;SDS011;48554;50.766;2.900;2022-09-14T05:12:01;4.87;;;2.50;;
60853;SDS011;48554;50.766;2.900;2022-09-14T05:14:21;6.73;;;3.03;;
60853;SDS011;48554;50.766;2.900;2022-09-14T05:16:42;5.43;;;2.77;;
60853;SDS011;48554;50.766;2.900;2022-09-14T05:19:04;6.75;;;3.05;;
60853;SDS011;48554;50.766;2.900;2022-09-14T05:21:26;5.20;;;2.72;;
60853;SDS011;48554;50.766;2.900;2022-09-14T05:23:51;5.60;;;2.75;;
60853;SDS011;48554;50.766;2.900;2022-09-14T05:26:15;6.32;;;3.33;;
60853;SDS011;48554;50.766;2.900;2022-09-14T05:28:35;7.83;;;3.63;;
60853;SDS011;48554;50.766;2.900;2022-09-14T05:30:56;5.73;;;3.20;;
60853;SDS011;48554;50.766;2.900;2022-09-14T05:33:16;6.20;;;2.67;;
60853;SDS011;48554;50.766;2.900;2022-09-14T05:35:37;8.87;;;3.33;;
60853;SDS011;48554;50.766;2.900;2022-09-14T05:37:57;8.73;;;3.30;;
60853;SDS011;48554;50.766;2.900;2022-09-14T05:40:17;7.60;;;3.27;;
60853;SDS011;48554;50.766;2.900;2022-09-14T05:42:38;12.60;;;3.40;;
60853;SDS011;48554;50.766;2.900;2022-09-14T05:44:58;5.97;;;3.20;;
60853;SDS011;48554;50.766;2.900;2022-09-14T05:47:18;10.23;;;3.30;;
60853;SDS011;48554;50.766;2.900;2022-09-14T05:49:38;8.67;;;3.27;;
60853;SDS011;48554;50.766;2.900;2022-09-14T05:51:59;7.43;;;3.47;;
60853;SDS011;48554;50.766;2.900;2022-09-14T05:54:19;8.13;;;3.17;;
60853;SDS011;48554;50.766;2.900;2022-09-14T05:56:39;9.93;;;3.30;;
60853;SDS011;48554;50.766;2.900;2022-09-14T05:58:59;9.87;;;3.80;;
60853;SDS011;48554;50.766;2.900;2022-09-14T06:03:44;8.60;;;4.10;;
60853;SDS011;48554;50.766;2.900;2022-09-14T06:06:05;7.30;;;3.92;;
60853;SDS011;48554;50.766;2.900;2022-09-14T06:08:27;6.57;;;3.20;;
60853;SDS011;48554;50.766;2.900;2022-09-14T06:10:47;5.93;;;3.43;;
60853;SDS011;48554;50.766;2.900;2022-09-14T06:13:08;6.13;;;2.93;;
60853;SDS011;48554;50.766;2.900;2022-09-14T06:15:28;6.77;;;3.43;;
60853;SDS011;48554;50.766;2.900;2022-09-14T06:17:48;9.53;;;4.00;;
60853;SDS011;48554;50.766;2.900;2022-09-14T06:20:08;7.47;;;3.13;;
60853;SDS011;48554;50.766;2.900;2022-09-14T06:22:29;7.77;;;3.67;;
60853;SDS011;48554;50.766;2.900;2022-09-14T06:24:50;6.32;;;3.25;;
60853;SDS011;48554;50.766;2.900;2022-09-14T06:27:10;7.00;;;3.33;;
60853;SDS011;48554;50.766;2.900;2022-09-14T06:29:31;6.43;;;3.53;;
60853;SDS011;48554;50.766;2.900;2022-09-14T06:31:52;4.90;;;3.37;;
60853;SDS011;48554;50.766;2.900;2022-09-14T06:34:13;7.50;;;3.40;;
60853;SDS011;48554;50.766;2.900;2022-09-14T06:36:33;5.07;;;3.03;;
60853;SDS011;48554;50.766;2.900;2022-09-14T06:38:55;6.57;;;3.50;;
60853;SDS011;48554;50.766;2.900;2022-09-14T06:41:19;4.97;;;2.97;;
60853;SDS011;48554;50.766;2.900;2022-09-14T06:43:40;6.03;;;3.22;;
60853;SDS011;48554;50.766;2.900;2022-09-14T06:50:43;5.28;;;3.00;;
60853;SDS011;48554;50.766;2.900;2022-09-14T06:53:03;5.43;;;3.30;;
60853;SDS011;48554;50.766;2.900;2022-09-14T06:55:24;6.40;;;3.40;;
60853;SDS011;48554;50.766;2.900;2022-09-14T06:57:46;5.63;;;3.40;;
60853;SDS011;48554;50.766;2.900;2022-09-14T07:00:06;5.72;;;2.88;;
60853;SDS011;48554;50.766;2.900;2022-09-14T07:02:27;5.70;;;3.00;;
60853;SDS011;48554;50.766;2.900;2022-09-14T07:04:47;4.77;;;2.57;;
60853;SDS011;48554;50.766;2.900;2022-09-14T07:07:07;5.07;;;2.73;;
60853;SDS011;48554;50.766;2.900;2022-09-14T07:09:28;4.90;;;2.67;;
60853;SDS011;48554;50.766;2.900;2022-09-14T07:11:48;6.63;;;3.00;;
60853;SDS011;48554;50.766;2.900;2022-09-14T07:14:09;5.50;;;2.63;;
60853;SDS011;48554;50.766;2.900;2022-09-14T07:16:30;4.40;;;2.70;;
60853;SDS011;48554;50.766;2.900;2022-09-14T07:18:53;6.15;;;2.63;;
60853;SDS011;48554;50.766;2.900;2022-09-14T07:21:15;5.15;;;2.75;;
60853;SDS011;48554;50.766;2.900;2022-09-14T07:23:38;3.78;;;2.40;;
60853;SDS011;48554;50.766;2.900;2022-09-14T07:26:00;5.55;;;2.88;;
60853;SDS011;48554;50.766;2.900;2022-09-14T07:28:22;3.75;;;2.67;;
60853;SDS011;48554;50.766;2.900;2022-09-14T07:30:42;6.90;;;2.63;;
60853;SDS011;48554;50.766;2.900;2022-09-14T07:33:03;5.37;;;2.57;;
60853;SDS011;48554;50.766;2.900;2022-09-14T07:35:24;4.72;;;2.40;;
60853;SDS011;48554;50.766;2.900;2022-09-14T07:37:44;5.23;;;2.40;;
60853;SDS011;48554;50.766;2.900;2022-09-14T07:40:05;3.53;;;2.20;;
60853;SDS011;48554;50.766;2.900;2022-09-14T07:42:26;4.40;;;2.47;;
60853;SDS011;48554;50.766;2.900;2022-09-14T07:44:46;8.43;;;2.00;;
60853;SDS011;48554;50.766;2.900;2022-09-14T07:47:06;5.80;;;2.10;;
60853;SDS011;48554;50.766;2.900;2022-09-14T07:49:26;5.40;;;2.30;;
60853;SDS011;48554;50.766;2.900;2022-09-14T07:51:47;4.73;;;2.30;;
60853;SDS011;48554;50.766;2.900;2022-09-14T07:54:09;5.40;;;2.70;;
60853;SDS011;48554;50.766;2.900;2022-09-14T07:56:30;3.53;;;2.20;;
60853;SDS011;48554;50.766;2.900;2022-09-14T07:58:56;3.93;;;2.33;;
60853;SDS011;48554;50.766;2.900;2022-09-14T08:01:18;4.95;;;2.30;;
60853;SDS011;48554;50.766;2.900;2022-09-14T08:03:38;5.83;;;3.13;;
60853;SDS011;48554;50.766;2.900;2022-09-14T08:06:01;4.93;;;2.38;;
60853;SDS011;48554;50.766;2.900;2022-09-14T08:08:23;4.00;;;2.28;;
60853;SDS011;48554;50.766;2.900;2022-09-14T08:10:44;3.90;;;2.23;;
60853;SDS011;48554;50.766;2.900;2022-09-14T08:13:04;4.03;;;1.87;;
60853;SDS011;48554;50.766;2.900;2022-09-14T08:15:24;5.23;;;2.40;;
60853;SDS011;48554;50.766;2.900;2022-09-14T08:17:44;6.23;;;2.53;;
60853;SDS011;48554;50.766;2.900;2022-09-14T08:20:05;3.63;;;2.27;;
60853;SDS011;48554;50.766;2.900;2022-09-14T08:22:26;2.93;;;1.90;;
60853;SDS011;48554;50.766;2.900;2022-09-14T08:24:46;3.93;;;2.10;;
60853;SDS011;48554;50.766;2.900;2022-09-14T08:27:08;4.50;;;2.03;;
60853;SDS011;48554;50.766;2.900;2022-09-14T08:29:28;3.30;;;1.90;;
60853;SDS011;48554;50.766;2.900;2022-09-14T08:31:49;4.63;;;2.00;;
60853;SDS011;48554;50.766;2.900;2022-09-14T08:34:09;3.97;;;1.90;;
60853;SDS011;48554;50.766;2.900;2022-09-14T08:36:34;3.80;;;1.95;;
60853;SDS011;48554;50.766;2.900;2022-09-14T08:38:56;3.38;;;1.77;;
60853;SDS011;48554;50.766;2.900;2022-09-14T08:41:24;4.37;;;2.00;;
60853;SDS011;48554;50.766;2.900;2022-09-14T08:43:45;2.95;;;1.70;;
60853;SDS011;48554;50.766;2.900;2022-09-14T08:46:08;3.87;;;1.90;;
60853;SDS011;48554;50.766;2.900;2022-09-14T08:48:35;3.63;;;1.85;;
60853;SDS011;48554;50.766;2.900;2022-09-14T08:51:00;3.13;;;1.65;;
60853;SDS011;48554;50.766;2.900;2022-09-14T08:53:24;3.53;;;1.70;;
60853;SDS011;48554;50.766;2.900;2022-09-14T08:55:46;2.63;;;1.50;;
60853;SDS011;48554;50.766;2.900;2022-09-14T09:00:44;4.33;;;1.57;;
60853;SDS011;48554;50.766;2.900;2022-09-14T09:10:37;2.58;;;1.33;;
60853;SDS011;48554;50.766;2.900;2022-09-14T09:13:00;2.20;;;1.50;;
60853;SDS011;48554;50.766;2.900;2022-09-14T09:17:56;4.10;;;1.98;;
60853;SDS011;48554;50.766;2.900;2022-09-14T09:20:25;2.88;;;1.70;;
60853;SDS011;48554;50.766;2.900;2022-09-14T09:22:52;1.83;;;1.25;;
60853;SDS011;48554;50.766;2.900;2022-09-14T09:25:23;2.70;;;1.63;;
60853;SDS011;48554;50.766;2.900;2022-09-14T09:28:08;3.33;;;1.73;;
60853;SDS011;48554;50.766;2.900;2022-09-14T09:30:30;2.75;;;1.35;;
60853;SDS011;48554;50.766;2.900;2022-09-14T09:32:51;1.57;;;1.27;;
60853;SDS011;48554;50.766;2.900;2022-09-14T09:35:16;4.20;;;1.70;;
60853;SDS011;48554;50.766;2.900;2022-09-14T09:37:41;1.80;;;1.17;;
60853;SDS011;48554;50.766;2.900;2022-09-14T09:40:01;1.90;;;1.47;;
60853;SDS011;48554;50.766;2.900;2022-09-14T09:42:25;2.50;;;1.48;;
60853;SDS011;48554;50.766;2.900;2022-09-14T09:44:59;3.77;;;1.80;;
60853;SDS011;48554;50.766;2.900;2022-09-14T09:47:32;2.15;;;1.40;;
60853;SDS011;48554;50.766;2.900;2022-09-14T09:49:58;2.97;;;1.80;;
60853;SDS011;48554;50.766;2.900;2022-09-14T09:52:23;2.42;;;1.42;;
60853;SDS011;48554;50.766;2.900;2022-09-14T09:54:50;2.37;;;1.67;;
60853;SDS011;48554;50.766;2.900;2022-09-14T09:57:32;2.70;;;1.45;;
60853;SDS011;48554;50.766;2.900;2022-09-14T10:00:08;1.95;;;1.30;;
60853;SDS011;48554;50.766;2.900;2022-09-14T10:02:40;1.92;;;1.27;;
60853;SDS011;48554;50.766;2.900;2022-09-14T10:07:23;2.05;;;1.38;;
60853;SDS011;48554;50.766;2.900;2022-09-14T10:09:44;2.30;;;1.40;;
60853;SDS011;48554;50.766;2.900;2022-09-14T10:12:23;2.80;;;1.30;;
60853;SDS011;48554;50.766;2.900;2022-09-14T10:14:44;2.58;;;1.58;;
60853;SDS011;48554;50.766;2.900;2022-09-14T10:17:16;2.25;;;1.58;;
60853;SDS011;48554;50.766;2.900;2022-09-14T10:19:39;2.70;;;1.25;;
60853;SDS011;48554;50.766;2.900;2022-09-14T10:22:00;3.37;;;1.70;;
60853;SDS011;48554;50.766;2.900;2022-09-14T10:26:41;2.27;;;1.30;;
60853;SDS011;48554;50.766;2.900;2022-09-14T10:29:24;4.63;;;1.50;;
60853;SDS011;48554;50.766;2.900;2022-09-14T10:31:49;3.40;;;1.40;;
60853;SDS011;48554;50.766;2.900;2022-09-14T10:34:12;2.13;;;1.50;;
60853;SDS011;48554;50.766;2.900;2022-09-14T10:36:40;2.47;;;1.42;;
60853;SDS011;48554;50.766;2.900;2022-09-14T10:42:00;2.90;;;1.60;;
60853;SDS011;48554;50.766;2.900;2022-09-14T11:07:17;2.92;;;1.67;;
60853;SDS011;48554;50.766;2.900;2022-09-14T11:09:35;3.58;;;1.80;;
60853;SDS011;48554;50.766;2.900;2022-09-14T11:12:18;2.95;;;1.63;;
60853;SDS011;48554;50.766;2.900;2022-09-14T11:22:32;3.67;;;2.00;;
60853;SDS011;48554;50.766;2.900;2022-09-14T11:25:24;3.65;;;2.20;;
60853;SDS011;48554;50.766;2.900;2022-09-14T11:28:08;3.08;;;2.05;;
60853;SDS011;48554;50.766;2.900;2022-09-14T11:33:40;4.18;;;1.83;;
60853;SDS011;48554;50.766;2.900;2022-09-14T11:36:08;3.83;;;2.10;;
60853;SDS011;48554;50.766;2.900;2022-09-14T11:38:40;2.90;;;1.55;;
60853;SDS011;48554;50.766;2.900;2022-09-14T11:43:46;3.67;;;1.80;;
60853;SDS011;48554;50.766;2.900;2022-09-14T11:46:38;6.05;;;2.20;;
60853;SDS011;48554;50.766;2.900;2022-09-14T11:51:28;2.60;;;1.50;;
60853;SDS011;48554;50.766;2.900;2022-09-14T11:53:52;3.70;;;2.10;;
60853;SDS011;48554;50.766;2.900;2022-09-14T11:56:31;3.80;;;2.20;;
60853;SDS011;48554;50.766;2.900;2022-09-14T11:58:53;3.40;;;1.95;;
60853;SDS011;48554;50.766;2.900;2022-09-14T12:07:00;3.37;;;2.13;;
60853;SDS011;48554;50.766;2.900;2022-09-14T12:11:36;4.03;;;2.10;;
60853;SDS011;48554;50.766;2.900;2022-09-14T12:19:40;3.85;;;2.10;;
60853;SDS011;48554;50.766;2.900;2022-09-14T12:22:46;4.25;;;2.67;;
60853;SDS011;48554;50.766;2.900;2022-09-14T12:27:21;5.18;;;2.67;;
60853;SDS011;48554;50.766;2.900;2022-09-14T12:29:42;9.20;;;2.23;;
60853;SDS011;48554;50.766;2.900;2022-09-14T12:32:03;4.47;;;2.27;;
60853;SDS011;48554;50.766;2.900;2022-09-14T12:34:25;3.47;;;2.42;;
60853;SDS011;48554;50.766;2.900;2022-09-14T12:44:00;4.60;;;2.30;;
60853;SDS011;48554;50.766;2.900;2022-09-14T12:51:07;3.92;;;2.20;;
60853;SDS011;48554;50.766;2.900;2022-09-14T12:53:31;2.80;;;1.98;;
60853;SDS011;48554;50.766;2.900;2022-09-14T12:55:55;3.35;;;2.13;;
60853;SDS011;48554;50.766;2.900;2022-09-14T13:03:32;3.10;;;1.98;;
60853;SDS011;48554;50.766;2.900;2022-09-14T13:05:58;2.80;;;1.90;;
60853;SDS011;48554;50.766;2.900;2022-09-14T13:08:21;3.27;;;2.03;;
60853;SDS011;48554;50.766;2.900;2022-09-14T13:10:44;3.72;;;1.83;;
60853;SDS011;48554;50.766;2.900;2022-09-14T13:13:23;3.35;;;1.90;;
60853;SDS011;48554;50.766;2.900;2022-09-14T13:15:48;3.20;;;1.70;;
60853;SDS011;48554;50.766;2.900;2022-09-14T13:20:33;4.87;;;2.07;;
60853;SDS011;48554;50.766;2.900;2022-09-14T13:22:54;3.42;;;2.10;;
60853;SDS011;48554;50.766;2.900;2022-09-14T13:27:58;4.43;;;2.03;;
60853;SDS011;48554;50.766;2.900;2022-09-14T13:30:21;3.40;;;2.00;;
60853;SDS011;48554;50.766;2.900;2022-09-14T13:32:45;3.65;;;1.98;;
60853;SDS011;48554;50.766;2.900;2022-09-14T13:35:14;2.83;;;1.60;;
60853;SDS011;48554;50.766;2.900;2022-09-14T13:37:37;4.18;;;1.70;;
60853;SDS011;48554;50.766;2.900;2022-09-14T13:39:58;4.37;;;1.90;;
60853;SDS011;48554;50.766;2.900;2022-09-14T13:42:19;2.97;;;2.00;;
60853;SDS011;48554;50.766;2.900;2022-09-14T13:44:41;2.72;;;1.95;;
60853;SDS011;48554;50.766;2.900;2022-09-14T13:47:03;3.00;;;1.98;;
60853;SDS011;48554;50.766;2.900;2022-09-14T13:49:24;3.70;;;2.08;;
60853;SDS011;48554;50.766;2.900;2022-09-14T13:51:45;3.60;;;2.13;;
60853;SDS011;48554;50.766;2.900;2022-09-14T13:54:15;4.17;;;2.23;;
60853;SDS011;48554;50.766;2.900;2022-09-14T13:56:59;3.28;;;2.03;;
60853;SDS011;48554;50.766;2.900;2022-09-14T13:59:35;4.28;;;2.33;;
60853;SDS011;48554;50.766;2.900;2022-09-14T14:01:56;4.13;;;2.37;;
60853;SDS011;48554;50.766;2.900;2022-09-14T14:04:25;4.43;;;2.50;;
60853;SDS011;48554;50.766;2.900;2022-09-14T14:06:58;5.97;;;2.83;;
60853;SDS011;48554;50.766;2.900;2022-09-14T14:09:22;5.10;;;3.13;;
60853;SDS011;48554;50.766;2.900;2022-09-14T14:11:44;5.57;;;3.67;;
60853;SDS011;48554;50.766;2.900;2022-09-14T14:16:34;8.00;;;4.00;;
60853;SDS011;48554;50.766;2.900;2022-09-14T14:18:55;6.13;;;3.70;;
60853;SDS011;48554;50.766;2.900;2022-09-14T14:23:42;6.57;;;3.92;;
60853;SDS011;48554;50.766;2.900;2022-09-14T14:26:07;5.60;;;3.57;;
60853;SDS011;48554;50.766;2.900;2022-09-14T14:28:31;6.53;;;4.15;;
60853;SDS011;48554;50.766;2.900;2022-09-14T14:30:51;8.40;;;4.27;;
60853;SDS011;48554;50.766;2.900;2022-09-14T14:33:13;8.43;;;4.75;;
60853;SDS011;48554;50.766;2.900;2022-09-14T14:35:35;8.98;;;5.43;;
60853;SDS011;48554;50.766;2.900;2022-09-14T14:37:55;9.80;;;6.40;;
60853;SDS011;48554;50.766;2.900;2022-09-14T14:40:16;10.27;;;6.33;;
60853;SDS011;48554;50.766;2.900;2022-09-14T14:42:38;10.85;;;7.13;;
60853;SDS011;48554;50.766;2.900;2022-09-14T14:44:58;12.47;;;8.23;;
60853;SDS011;48554;50.766;2.900;2022-09-14T14:47:19;11.73;;;7.63;;
60853;SDS011;48554;50.766;2.900;2022-09-14T14:49:39;11.63;;;7.30;;
60853;SDS011;48554;50.766;2.900;2022-09-14T14:51:59;12.20;;;7.30;;
60853;SDS011;48554;50.766;2.900;2022-09-14T14:54:20;14.73;;;8.57;;
60853;SDS011;48554;50.766;2.900;2022-09-14T14:56:40;16.07;;;8.93;;
60853;SDS011;48554;50.766;2.900;2022-09-14T14:59:01;13.37;;;8.37;;
60853;SDS011;48554;50.766;2.900;2022-09-14T15:01:21;11.95;;;7.82;;
60853;SDS011;48554;50.766;2.900;2022-09-14T15:03:42;13.70;;;8.27;;
60853;SDS011;48554;50.766;2.900;2022-09-14T15:06:12;12.00;;;7.60;;
60853;SDS011;48554;50.766;2.900;2022-09-14T15:08:34;11.57;;;7.15;;
60853;SDS011;48554;50.766;2.900;2022-09-14T15:10:55;11.67;;;7.60;;
60853;SDS011;48554;50.766;2.900;2022-09-14T15:13:15;12.88;;;7.00;;
60853;SDS011;48554;50.766;2.900;2022-09-14T15:15:36;9.43;;;6.10;;
60853;SDS011;48554;50.766;2.900;2022-09-14T15:17:59;8.60;;;5.55;;
60853;SDS011;48554;50.766;2.900;2022-09-14T15:20:19;9.80;;;5.97;;
60853;SDS011;48554;50.766;2.900;2022-09-14T15:22:40;8.97;;;5.63;;
60853;SDS011;48554;50.766;2.900;2022-09-14T15:25:01;8.60;;;5.27;;
60853;SDS011;48554;50.766;2.900;2022-09-14T15:27:22;8.75;;;5.07;;
60853;SDS011;48554;50.766;2.900;2022-09-14T15:29:42;8.40;;;4.80;;
60853;SDS011;48554;50.766;2.900;2022-09-14T15:32:02;8.17;;;5.07;;
60853;SDS011;48554;50.766;2.900;2022-09-14T15:34:23;7.77;;;4.73;;
60853;SDS011;48554;50.766;2.900;2022-09-14T15:36:44;6.80;;;3.80;;
60853;SDS011;48554;50.766;2.900;2022-09-14T15:39:07;7.00;;;4.15;;
60853;SDS011;48554;50.766;2.900;2022-09-14T15:41:30;8.00;;;4.53;;
60853;SDS011;48554;50.766;2.900;2022-09-14T15:43:51;8.17;;;4.57;;
60853;SDS011;48554;50.766;2.900;2022-09-14T15:46:11;7.57;;;4.00;;
60853;SDS011;48554;50.766;2.900;2022-09-14T15:48:31;6.63;;;3.37;;
60853;SDS011;48554;50.766;2.900;2022-09-14T15:50:51;6.50;;;3.43;;
60853;SDS011;48554;50.766;2.900;2022-09-14T15:53:12;6.10;;;3.30;;
60853;SDS011;48554;50.766;2.900;2022-09-14T15:55:34;6.50;;;3.40;;
60853;SDS011;48554;50.766;2.900;2022-09-14T15:57:54;5.47;;;3.17;;
60853;SDS011;48554;50.766;2.900;2022-09-14T16:00:14;6.10;;;3.07;;
60853;SDS011;48554;50.766;2.900;2022-09-14T16:02:34;5.20;;;2.83;;
60853;SDS011;48554;50.766;2.900;2022-09-14T16:04:55;5.07;;;2.80;;
60853;SDS011;48554;50.766;2.900;2022-09-14T16:07:15;5.47;;;2.70;;
60853;SDS011;48554;50.766;2.900;2022-09-14T16:09:39;5.93;;;3.00;;
60853;SDS011;48554;50.766;2.900;2022-09-14T16:12:00;6.72;;;3.13;;
60853;SDS011;48554;50.766;2.900;2022-09-14T16:14:20;8.10;;;4.03;;
60853;SDS011;48554;50.766;2.900;2022-09-14T16:16:41;10.40;;;5.60;;
60853;SDS011;48554;50.766;2.900;2022-09-14T16:19:05;10.63;;;6.20;;
60853;SDS011;48554;50.766;2.900;2022-09-14T16:21:27;8.05;;;4.68;;
60853;SDS011;48554;50.766;2.900;2022-09-14T16:23:49;10.50;;;4.95;;
60853;SDS011;48554;50.766;2.900;2022-09-14T16:26:14;8.40;;;4.75;;
60853;SDS011;48554;50.766;2.900;2022-09-14T16:28:36;7.68;;;4.35;;
60853;SDS011;48554;50.766;2.900;2022-09-14T16:31:16;8.15;;;4.95;;
60853;SDS011;48554;50.766;2.900;2022-09-14T16:33:42;10.63;;;5.72;;
60853;SDS011;48554;50.766;2.900;2022-09-14T16:36:05;10.88;;;6.05;;
60853;SDS011;48554;50.766;2.900;2022-09-14T16:38:28;12.40;;;6.55;;
60853;SDS011;48554;50.766;2.900;2022-09-14T16:40:48;11.20;;;6.30;;
60853;SDS011;48554;50.766;2.900;2022-09-14T16:43:09;12.53;;;6.57;;
60853;SDS011;48554;50.766;2.900;2022-09-14T16:45:29;12.87;;;7.67;;
60853;SDS011;48554;50.766;2.900;2022-09-14T16:47:49;13.13;;;7.23;;